Time;durP1;ratioP1;P1;durP2;ratioP2;P2;SDS_P1;SDS_P2;PMS_P1;PMS_P2;Temp;Humidity;BMP_temperature;BMP_pressure;BME280_temperature;BME280_humidity;BME280_pressure;Samples;Min_cycle;Max_cycle;Signal;HPM_P1;HPM_P2
2023/08/12 00:02:08;;;;;;;29.08;24.65;;;18.30;99.90;;;;;;4940318;29;20133;-78
2023/08/12 00:04:34;;;;;;;35.20;25.48;;;18.30;99.90;;;;;;4924558;29;20050;-78
2023/08/12 00:07:00;;;;;;;22.55;20.15;;;18.30;99.90;;;;;;4924020;29;20047;-78
2023/08/12 00:09:25;;;;;;;23.10;20.75;;;18.20;99.90;;;;;;4940582;28;20041;-78
2023/08/12 00:11:51;;;;;;;25.60;22.90;;;18.30;99.90;;;;;;4958935;28;20094;-78
2023/08/12 00:14:17;;;;;;;23.50;21.13;;;18.30;99.90;;;;;;4958369;28;21068;-78
2023/08/12 00:16:43;;;;;;;22.80;20.45;;;18.20;99.90;;;;;;4958529;28;20043;-78
2023/08/12 00:19:09;;;;;;;23.33;21.10;;;18.20;99.90;;;;;;4958918;28;20049;-78
2023/08/12 00:21:38;;;;;;;24.30;21.75;;;18.20;99.90;;;;;;4943235;28;20085;-78
2023/08/12 00:24:04;;;;;;;25.10;22.33;;;18.20;99.90;;;;;;4943174;28;20079;-78
2023/08/12 00:26:30;;;;;;;23.10;20.83;;;18.20;99.90;;;;;;4958501;28;20038;-79
2023/08/12 00:28:55;;;;;;;26.35;23.52;;;18.20;99.90;;;;;;4942948;28;20058;-78
2023/08/12 00:31:21;;;;;;;35.53;27.52;;;18.20;99.90;;;;;;4942960;28;20501;-77
2023/08/12 00:33:47;;;;;;;25.73;22.77;;;18.20;99.90;;;;;;4958759;28;20051;-78
2023/08/12 00:36:12;;;;;;;24.80;22.38;;;18.20;99.90;;;;;;4958788;28;20101;-78
2023/08/12 00:38:38;;;;;;;28.08;25.30;;;18.20;99.90;;;;;;4958580;28;20039;-78
2023/08/12 00:41:04;;;;;;;30.10;26.80;;;18.30;99.90;;;;;;4958209;28;20078;-78
2023/08/12 00:43:32;;;;;;;27.92;24.88;;;18.20;99.90;;;;;;4974993;28;20126;-78
2023/08/12 00:45:58;;;;;;;27.17;23.17;;;18.20;99.90;;;;;;4958479;28;20050;-78
2023/08/12 00:48:25;;;;;;;27.38;24.70;;;18.20;99.90;;;;;;4958459;28;20035;-78
2023/08/12 00:50:51;;;;;;;27.48;24.77;;;18.20;99.90;;;;;;4942450;28;20051;-78
2023/08/12 00:53:20;;;;;;;41.22;30.02;;;18.20;99.90;;;;;;4930871;29;20065;-78
2023/08/12 00:55:46;;;;;;;24.85;22.52;;;18.20;99.90;;;;;;4954825;29;20089;-78
2023/08/12 00:58:12;;;;;;;28.23;25.23;;;18.20;99.90;;;;;;4923442;28;20079;-78
2023/08/12 01:00:40;;;;;;;26.45;23.65;;;18.20;99.90;;;;;;4923702;29;20105;-77
2023/08/12 01:03:14;;;;;;;25.33;22.85;;;18.20;99.90;;;;;;4934884;28;20490;-78
2023/08/12 01:05:48;;;;;;;25.55;22.95;;;18.20;99.90;;;;;;4956054;28;20050;-78
2023/08/12 01:08:19;;;;;;;27.98;25.08;;;18.20;99.90;;;;;;4958114;28;20126;-78
2023/08/12 01:10:59;;;;;;;25.45;22.80;;;18.20;99.90;;;;;;4958348;28;20552;-78
2023/08/12 01:13:57;;;;;;;25.08;22.38;;;18.20;99.90;;;;;;4945419;29;20494;-78
2023/08/12 01:16:32;;;;;;;25.60;22.98;;;18.20;99.90;;;;;;4932053;28;20057;-78
2023/08/12 01:19:04;;;;;;;26.05;23.25;;;18.20;99.90;;;;;;4957683;28;20055;-78
2023/08/12 01:21:32;;;;;;;24.67;22.30;;;18.20;99.90;;;;;;4979425;28;20051;-78
2023/08/12 01:24:09;;;;;;;26.63;23.88;;;18.10;99.90;;;;;;4951176;28;20059;-78
2023/08/12 01:26:49;;;;;;;25.92;23.13;;;18.20;99.90;;;;;;4959577;28;20089;-78
2023/08/12 01:29:24;;;;;;;25.35;22.70;;;18.10;99.90;;;;;;4984289;28;20098;-78
2023/08/12 01:31:58;;;;;;;25.63;23.08;;;18.10;99.90;;;;;;4994897;28;20102;-79
2023/08/12 01:34:50;;;;;;;23.10;20.90;;;18.10;99.90;;;;;;4973249;28;20034;-80
2023/08/12 01:37:27;;;;;;;24.88;22.30;;;18.00;99.90;;;;;;4957057;28;20075;-79
2023/08/12 01:39:58;;;;;;;25.10;22.63;;;18.00;99.90;;;;;;4972390;28;20049;-79
2023/08/12 01:42:28;;;;;;;28.67;25.58;;;17.90;99.90;;;;;;4997704;28;20089;-79
2023/08/12 01:45:04;;;;;;;;;;;;;;;;;;;;;
2023/08/12 01:47:36;;;;;;;28.60;25.70;;;18.00;99.90;;;;;;4961472;28;20051;-80
2023/08/12 01:50:06;;;;;;;31.17;28.02;;;18.00;99.90;;;;;;4977587;28;20046;-80
2023/08/12 01:52:38;;;;;;;30.88;27.77;;;18.00;99.90;;;;;;4975749;28;20045;-78
2023/08/12 01:55:07;;;;;;;27.58;24.92;;;18.00;99.90;;;;;;4968243;28;20386;-78
2023/08/12 01:57:36;;;;;;;26.23;23.60;;;18.00;99.90;;;;;;4972354;28;20043;-78
2023/08/12 02:00:06;;;;;;;26.52;23.92;;;18.10;99.90;;;;;;4966257;28;20069;-78
2023/08/12 02:02:34;;;;;;;40.67;30.10;;;18.10;99.90;;;;;;4965885;28;20090;-78
2023/08/12 02:05:03;;;;;;;30.63;27.50;;;18.10;99.90;;;;;;4960744;28;20054;-78
2023/08/12 02:07:30;;;;;;;35.67;29.80;;;18.10;99.90;;;;;;4966586;28;20051;-78
2023/08/12 02:09:56;;;;;;;27.70;24.90;;;18.00;99.90;;;;;;4975373;28;20051;-79
2023/08/12 02:12:34;;;;;;;39.22;28.33;;;18.10;99.90;;;;;;4962028;28;20043;-80
2023/08/12 02:15:00;;;;;;;69.60;35.58;;;18.10;99.90;;;;;;4961828;28;20039;-79
2023/08/12 02:17:42;;;;;;;33.17;29.60;;;18.00;99.90;;;;;;4965851;28;20055;-80
2023/08/12 02:20:08;;;;;;;34.28;29.67;;;18.00;99.90;;;;;;4969646;28;20595;-79
2023/08/12 02:22:35;;;;;;;36.55;29.42;;;18.00;99.90;;;;;;4962899;28;20043;-80
2023/08/12 02:25:03;;;;;;;31.10;27.77;;;18.10;99.90;;;;;;4961634;28;20049;-79
2023/08/12 02:27:32;;;;;;;43.50;33.15;;;18.10;99.90;;;;;;4960012;28;20043;-79
2023/08/12 02:30:01;;;;;;;34.53;29.73;;;18.10;99.90;;;;;;4959556;28;20078;-80
2023/08/12 02:32:36;;;;;;;32.08;28.88;;;18.10;99.90;;;;;;4955992;28;20034;-80
2023/08/12 02:35:09;;;;;;;32.45;28.63;;;18.20;99.90;;;;;;4955657;28;20097;-78
2023/08/12 02:37:35;;;;;;;33.03;29.00;;;18.20;99.90;;;;;;4963389;28;20158;-80
2023/08/12 02:40:07;;;;;;;31.13;27.83;;;18.20;99.90;;;;;;4957269;28;20058;-80
2023/08/12 02:42:35;;;;;;;26.95;24.23;;;18.20;99.90;;;;;;4956907;28;20082;-80
2023/08/12 02:45:01;;;;;;;29.05;26.00;;;18.20;99.90;;;;;;4957434;28;20050;-80
2023/08/12 02:47:31;;;;;;;32.08;28.63;;;18.20;99.90;;;;;;4957497;28;20398;-79
2023/08/12 02:49:56;;;;;;;29.75;26.75;;;18.20;99.90;;;;;;4973436;28;20123;-80
2023/08/12 02:52:28;;;;;;;30.58;27.50;;;18.20;99.90;;;;;;4966595;28;20082;-79
2023/08/12 02:54:57;;;;;;;33.60;29.20;;;18.30;99.90;;;;;;4951469;28;20043;-78
2023/08/12 02:57:28;;;;;;;28.75;25.88;;;18.30;99.90;;;;;;4955326;28;20526;-78
2023/08/12 02:59:54;;;;;;;34.33;29.38;;;18.30;99.90;;;;;;4947116;28;20054;-78
2023/08/12 03:02:26;;;;;;;30.40;27.40;;;18.30;99.90;;;;;;4975354;28;20593;-77
2023/08/12 03:04:54;;;;;;;29.55;26.63;;;18.30;99.90;;;;;;4969513;28;20047;-78
2023/08/12 03:07:23;;;;;;;35.83;30.35;;;18.30;99.90;;;;;;4947379;28;20316;-78
2023/08/12 03:09:55;;;;;;;31.90;28.70;;;18.30;99.90;;;;;;4956112;28;20042;-79
2023/08/12 03:12:24;;;;;;;29.35;26.33;;;18.40;99.90;;;;;;4958641;28;20100;-78
2023/08/12 03:14:50;;;;;;;32.08;28.70;;;18.40;99.90;;;;;;4970332;28;20085;-78
2023/08/12 03:17:18;;;;;;;27.85;25.02;;;18.40;99.90;;;;;;4971573;28;20133;-78
2023/08/12 03:19:54;;;;;;;29.05;26.08;;;18.40;99.90;;;;;;4955261;28;20157;-79
2023/08/12 03:22:22;;;;;;;28.08;25.27;;;18.40;99.90;;;;;;4934038;28;20130;-80
2023/08/12 03:24:54;;;;;;;29.23;26.20;;;18.40;99.90;;;;;;4958525;28;20134;-80
2023/08/12 03:27:23;;;;;;;28.05;25.25;;;18.40;99.90;;;;;;4980602;28;20038;-80
2023/08/12 03:29:49;;;;;;;27.25;24.63;;;18.40;99.90;;;;;;4954815;28;20050;-79
2023/08/12 03:32:22;;;;;;;31.60;28.17;;;18.40;99.90;;;;;;4933469;28;20086;-80
2023/08/12 03:34:50;;;;;;;31.90;28.73;;;18.40;99.90;;;;;;4972586;28;20051;-80
2023/08/12 03:37:31;;;;;;;35.28;29.70;;;18.40;99.90;;;;;;4940367;28;20061;-80
2023/08/12 03:39:59;;;;;;;31.20;27.95;;;18.40;99.90;;;;;;4950369;28;20528;-80
2023/08/12 03:42:33;;;;;;;31.10;27.90;;;18.40;99.90;;;;;;4954315;28;20055;-78
2023/08/12 03:44:59;;;;;;;29.25;26.20;;;18.40;99.90;;;;;;4960711;28;20045;-79
2023/08/12 03:47:28;;;;;;;32.25;29.02;;;18.40;99.90;;;;;;4958776;28;20035;-79
2023/08/12 03:49:54;;;;;;;30.63;27.65;;;18.50;99.90;;;;;;4962369;28;20043;-79
2023/08/12 03:52:22;;;;;;;30.70;27.42;;;18.50;99.90;;;;;;4983838;28;20074;-79
2023/08/12 03:54:53;;;;;;;46.88;36.08;;;18.50;99.90;;;;;;4978787;28;20421;-79
2023/08/12 03:57:21;;;;;;;31.30;28.13;;;18.50;99.90;;;;;;4943271;28;20059;-79
2023/08/12 03:59:49;;;;;;;32.15;28.92;;;18.50;99.90;;;;;;4972143;28;20035;-78
2023/08/12 04:02:15;;;;;;;29.90;27.08;;;18.40;99.90;;;;;;4945285;28;20035;-78
2023/08/12 04:04:47;;;;;;;32.25;29.02;;;18.50;99.90;;;;;;4976691;28;20045;-78
2023/08/12 04:07:24;;;;;;;28.90;26.10;;;18.50;99.90;;;;;;4956055;28;20101;-78
2023/08/12 04:09:52;;;;;;;30.45;27.23;;;18.50;99.90;;;;;;4964724;28;20513;-78
2023/08/12 04:12:31;;;;;;;32.15;28.73;;;18.50;99.90;;;;;;4958596;28;20106;-78
2023/08/12 04:14:57;;;;;;;30.00;27.00;;;18.50;99.90;;;;;;4965495;28;20046;-79
2023/08/12 04:17:23;;;;;;;37.92;32.30;;;18.50;99.90;;;;;;4965956;28;20046;-79
2023/08/12 04:19:58;;;;;;;33.70;30.13;;;18.50;99.90;;;;;;4977624;28;20497;-78
2023/08/12 04:22:24;;;;;;;31.15;28.10;;;18.50;99.90;;;;;;4966640;28;20106;-79
2023/08/12 04:25:01;;;;;;;34.17;30.60;;;18.50;99.90;;;;;;4967212;28;20058;-79
2023/08/12 04:27:29;;;;;;;34.17;30.58;;;18.50;99.90;;;;;;4960525;28;20110;-79
2023/08/12 04:30:00;;;;;;;31.08;28.08;;;18.40;99.90;;;;;;4958639;28;20034;-78
2023/08/12 04:32:32;;;;;;;82.13;46.58;;;18.50;99.90;;;;;;4965675;28;20145;-78
2023/08/12 04:35:03;;;;;;;32.60;29.38;;;18.40;99.90;;;;;;4968075;28;20082;-78
2023/08/12 04:37:32;;;;;;;38.95;34.67;;;18.50;99.90;;;;;;4954761;28;20045;-78
2023/08/12 04:40:00;;;;;;;36.88;32.85;;;18.50;99.90;;;;;;4954136;28;20059;-78
2023/08/12 04:42:34;;;;;;;39.00;34.63;;;18.50;99.90;;;;;;4968388;28;20070;-78
2023/08/12 04:45:00;;;;;;;43.60;37.10;;;18.50;99.90;;;;;;4964457;28;20505;-78
2023/08/12 04:47:32;;;;;;;39.78;35.25;;;18.40;99.90;;;;;;4949829;28;20054;-78
2023/08/12 04:50:00;;;;;;;42.83;36.33;;;18.50;99.90;;;;;;4973350;28;20536;-78
2023/08/12 04:52:31;;;;;;;41.25;34.67;;;18.50;99.90;;;;;;4941061;28;20043;-78
2023/08/12 04:55:06;;;;;;;42.80;37.83;;;18.50;99.90;;;;;;4942494;28;20050;-78
2023/08/12 04:57:35;;;;;;;42.90;38.10;;;18.50;99.90;;;;;;4946803;28;20046;-78
2023/08/12 05:00:12;;;;;;;43.42;38.63;;;18.60;99.90;;;;;;4968416;28;20390;-78
2023/08/12 05:02:39;;;;;;;41.10;36.72;;;18.50;99.90;;;;;;4962926;28;20086;-78
2023/08/12 05:05:08;;;;;;;39.50;35.28;;;18.50;99.90;;;;;;4967155;28;20456;-78
2023/08/12 05:07:52;;;;;;;41.72;37.38;;;18.50;99.90;;;;;;4959439;28;20053;-78
2023/08/12 05:10:23;;;;;;;38.35;34.42;;;18.60;99.90;;;;;;4947164;28;20035;-78
2023/08/12 05:12:58;;;;;;;38.55;34.65;;;18.70;99.90;;;;;;4954661;28;20046;-78
2023/08/12 05:15:43;;;;;;;41.78;37.40;;;18.80;99.90;;;;;;4955182;28;20038;-80
2023/08/12 05:18:18;;;;;;;44.63;39.45;;;18.80;99.90;;;;;;4946050;28;20050;-79
2023/08/12 05:20:53;;;;;;;41.78;37.45;;;18.90;99.90;;;;;;4959771;28;20787;-79
2023/08/12 05:23:21;;;;;;;42.75;38.15;;;18.90;99.90;;;;;;4981763;28;20042;-80
2023/08/12 05:25:49;;;;;;;46.22;41.33;;;19.00;99.90;;;;;;4949597;28;20046;-79
2023/08/12 05:28:18;;;;;;;47.58;42.50;;;19.10;99.90;;;;;;4963058;28;20102;-79
2023/08/12 05:30:49;;;;;;;44.47;40.05;;;19.20;99.90;;;;;;4937815;28;20521;-78
2023/08/12 05:33:21;;;;;;;41.42;37.40;;;19.30;99.90;;;;;;4938448;28;20570;-79
2023/08/12 05:35:58;;;;;;;42.65;38.50;;;19.40;99.90;;;;;;4969872;28;20049;-79
2023/08/12 05:38:32;;;;;;;39.80;35.85;;;19.50;99.90;;;;;;4969933;28;20069;-79
2023/08/12 05:41:03;;;;;;;40.85;36.78;;;19.60;99.90;;;;;;4974398;28;20450;-80
2023/08/12 05:43:32;;;;;;;42.15;37.85;;;19.60;99.90;;;;;;4962455;28;20043;-80
2023/08/12 05:46:11;;;;;;;41.85;37.10;;;19.70;99.90;;;;;;4957167;28;20043;-80
2023/08/12 05:48:37;;;;;;;39.75;35.83;;;19.80;99.90;;;;;;4976535;28;20043;-79
2023/08/12 05:51:05;;;;;;;41.35;37.13;;;19.80;99.90;;;;;;4966702;28;20046;-80
2023/08/12 05:53:34;;;;;;;43.22;38.90;;;19.90;99.90;;;;;;4949161;28;20049;-80
2023/08/12 05:56:17;;;;;;;43.80;39.28;;;19.90;99.90;;;;;;4942017;28;20058;-80
2023/08/12 05:58:48;;;;;;;43.80;39.35;;;20.00;99.90;;;;;;4958435;28;20098;-80
2023/08/12 06:01:17;;;;;;;43.65;39.20;;;20.00;99.90;;;;;;4953153;28;20096;-80
2023/08/12 06:04:02;;;;;;;45.95;41.05;;;20.00;99.90;;;;;;4953076;28;20150;-80
2023/08/12 06:06:30;;;;;;;43.08;38.80;;;20.00;99.90;;;;;;4970367;28;20516;-80
2023/08/12 06:09:04;;;;;;;41.65;37.50;;;20.00;99.90;;;;;;4976825;28;20137;-80
2023/08/12 06:11:30;;;;;;;46.15;41.42;;;20.00;99.90;;;;;;4956009;28;20046;-80
2023/08/12 06:13:56;;;;;;;45.13;40.40;;;20.00;99.90;;;;;;4949556;28;20047;-80
2023/08/12 06:16:40;;;;;;;45.30;40.78;;;20.10;99.90;;;;;;4957461;28;20047;-80
2023/08/12 06:19:11;;;;;;;44.15;39.70;;;20.10;99.90;;;;;;4956236;28;20062;-80
2023/08/12 06:21:43;;;;;;;46.25;41.00;;;20.10;99.90;;;;;;4946500;28;20061;-80
2023/08/12 06:24:20;;;;;;;44.53;40.03;;;20.10;99.90;;;;;;4958638;28;20501;-80
2023/08/12 06:26:52;;;;;;;45.92;41.10;;;20.20;99.90;;;;;;4972585;28;20046;-79
2023/08/12 06:29:18;;;;;;;44.72;40.35;;;20.20;99.90;;;;;;4974882;28;20042;-81
2023/08/12 06:31:47;;;;;;;45.25;40.78;;;20.20;99.90;;;;;;4936405;28;20050;-79
2023/08/12 06:34:13;;;;;;;46.28;41.25;;;20.20;99.90;;;;;;4966917;28;20469;-81
2023/08/12 06:36:41;;;;;;;46.33;41.33;;;20.30;99.90;;;;;;4949567;28;20043;-81
2023/08/12 06:39:12;;;;;;;42.90;38.67;;;20.20;99.90;;;;;;4957704;28;20120;-78
2023/08/12 06:41:43;;;;;;;50.30;42.53;;;20.20;99.90;;;;;;4959114;28;20117;-80
2023/08/12 06:44:12;;;;;;;46.63;41.92;;;20.20;99.90;;;;;;4954826;28;20138;-79
2023/08/12 06:46:40;;;;;;;46.40;41.92;;;20.20;99.90;;;;;;4955135;28;20501;-80
2023/08/12 06:49:08;;;;;;;46.75;41.88;;;20.20;99.90;;;;;;4955470;28;20057;-79
2023/08/12 06:51:34;;;;;;;46.53;41.85;;;20.10;99.90;;;;;;4954025;28;20489;-79
2023/08/12 06:54:06;;;;;;;47.47;42.67;;;20.20;99.90;;;;;;4937479;28;20042;-79
2023/08/12 06:56:37;;;;;;;45.13;40.65;;;20.10;99.90;;;;;;4953832;28;20110;-78
2023/08/12 06:59:06;;;;;;;48.15;43.08;;;20.10;99.90;;;;;;4947738;28;20043;-78
2023/08/12 07:01:34;;;;;;;46.10;41.50;;;20.10;99.90;;;;;;4954204;28;20046;-78
2023/08/12 07:04:00;;;;;;;45.40;40.90;;;20.10;99.90;;;;;;4954815;28;20052;-78
2023/08/12 07:06:28;;;;;;;44.45;40.22;;;20.10;99.90;;;;;;4956921;28;20425;-78
2023/08/12 07:08:55;;;;;;;44.95;40.47;;;20.10;99.90;;;;;;4954158;28;20035;-79
2023/08/12 07:11:21;;;;;;;55.58;47.28;;;20.10;99.90;;;;;;4954720;28;20409;-79
2023/08/12 07:13:47;;;;;;;43.85;39.38;;;20.10;99.90;;;;;;4961551;28;20039;-79
2023/08/12 07:16:13;;;;;;;46.90;42.17;;;20.10;99.90;;;;;;4957861;28;20045;-79
2023/08/12 07:18:42;;;;;;;48.42;43.47;;;20.10;99.90;;;;;;4968555;28;20046;-79
2023/08/12 07:21:13;;;;;;;46.50;41.67;;;20.10;99.90;;;;;;4969901;28;20039;-78
2023/08/12 07:23:38;;;;;;;45.10;40.67;;;20.10;99.90;;;;;;4957291;28;20086;-78
2023/08/12 07:26:13;;;;;;;43.83;39.33;;;20.10;99.90;;;;;;4955653;28;20591;-77
2023/08/12 07:28:56;;;;;;;45.22;40.58;;;20.20;99.90;;;;;;4939687;28;20081;-80
2023/08/12 07:31:21;;;;;;;44.85;40.38;;;20.10;99.90;;;;;;4946438;28;20067;-79
2023/08/12 07:33:50;;;;;;;52.70;46.38;;;20.10;99.90;;;;;;4954314;28;20085;-80
2023/08/12 07:36:18;;;;;;;47.65;42.65;;;20.10;99.90;;;;;;4942888;28;20190;-79
2023/08/12 07:38:47;;;;;;;72.25;51.33;;;20.10;99.90;;;;;;4968687;28;20383;-79
2023/08/12 07:41:16;;;;;;;50.63;44.67;;;20.10;99.90;;;;;;4966926;28;20134;-79
2023/08/12 07:43:44;;;;;;;46.28;41.42;;;20.10;99.90;;;;;;4974645;28;20042;-81
2023/08/12 07:46:10;;;;;;;60.75;47.70;;;20.10;99.90;;;;;;4959132;28;20134;-78
2023/08/12 07:48:41;;;;;;;67.05;48.60;;;20.00;99.90;;;;;;4959480;28;20552;-78
2023/08/12 07:51:14;;;;;;;47.97;42.83;;;20.00;99.90;;;;;;4952837;28;20522;-78
2023/08/12 07:53:43;;;;;;;60.67;47.25;;;20.00;99.90;;;;;;4955267;28;20070;-78
2023/08/12 07:56:12;;;;;;;66.60;47.53;;;19.90;99.90;;;;;;4973252;28;20106;-79
2023/08/12 07:58:45;;;;;;;97.40;55.40;;;19.90;99.90;;;;;;4986321;28;20050;-80
2023/08/12 08:01:22;;;;;;;70.75;49.03;;;19.90;99.90;;;;;;4958790;28;20043;-80
2023/08/12 08:03:53;;;;;;;70.13;50.13;;;19.90;99.90;;;;;;4952651;28;20509;-80
2023/08/12 08:06:34;;;;;;;50.40;44.20;;;19.80;99.90;;;;;;4960867;28;20191;-80
2023/08/12 08:09:17;;;;;;;115.30;57.47;;;19.80;99.90;;;;;;4949213;28;20042;-81
2023/08/12 08:11:56;;;;;;;81.07;46.03;;;19.80;99.90;;;;;;4941933;28;20396;-81
2023/08/12 08:14:24;;;;;;;32.33;28.92;;;19.80;99.90;;;;;;4934791;28;20039;-81
2023/08/12 08:17:05;;;;;;;42.50;31.77;;;19.70;99.90;;;;;;4961229;28;20043;-80
2023/08/12 08:19:46;;;;;;;42.70;31.80;;;19.70;99.90;;;;;;4978373;28;20041;-83
2023/08/12 08:22:28;;;;;;;57.67;36.80;;;19.60;99.90;;;;;;4960745;28;20046;-81
2023/08/12 08:25:13;;;;;;;34.78;31.17;;;19.70;99.90;;;;;;4945927;28;20170;-81
2023/08/12 08:27:57;;;;;;;34.90;31.17;;;19.60;99.90;;;;;;4964780;28;20047;-81
2023/08/12 08:30:26;;;;;;;82.38;39.88;;;19.50;99.90;;;;;;4961643;28;20047;-81
2023/08/12 08:32:57;;;;;;;49.25;35.30;;;19.50;99.90;;;;;;4957248;28;20426;-80
2023/08/12 08:35:23;;;;;;;33.15;29.05;;;19.50;99.90;;;;;;4958840;28;20042;-80
2023/08/12 08:37:54;;;;;;;40.20;29.42;;;19.40;99.90;;;;;;4964541;28;20395;-80
2023/08/12 08:40:21;;;;;;;34.97;22.80;;;19.50;99.90;;;;;;4961659;28;20417;-80
2023/08/12 08:42:53;;;;;;;23.10;19.25;;;19.40;99.90;;;;;;4945787;28;20066;-81
2023/08/12 08:45:31;;;;;;;23.17;15.80;;;19.40;99.90;;;;;;4962812;28;20053;-81
2023/08/12 08:48:03;;;;;;;19.35;13.90;;;19.30;99.90;;;;;;4961071;28;20030;-80
2023/08/12 08:50:35;;;;;;;23.75;15.88;;;19.30;99.90;;;;;;4943431;28;20118;-80
2023/08/12 08:53:08;;;;;;;27.55;18.15;;;19.20;99.90;;;;;;4961966;28;20126;-81
2023/08/12 08:55:36;;;;;;;23.38;18.15;;;19.20;99.90;;;;;;4947457;28;20165;-80
2023/08/12 08:58:03;;;;;;;35.90;22.98;;;19.20;99.90;;;;;;4951771;28;20113;-81
2023/08/12 09:00:38;;;;;;;29.40;21.83;;;19.20;99.90;;;;;;4951555;28;20486;-81
2023/08/12 09:03:10;;;;;;;25.23;19.80;;;19.30;99.90;;;;;;4957710;28;20077;-80
2023/08/12 09:05:45;;;;;;;26.52;17.10;;;19.30;99.90;;;;;;4980185;28;20114;-80
2023/08/12 09:08:12;;;;;;;13.23;12.05;;;19.30;99.90;;;;;;4968878;28;20059;-80
2023/08/12 09:10:42;;;;;;;17.60;15.18;;;19.30;99.90;;;;;;4963379;28;20043;-80
2023/08/12 09:13:31;;;;;;;16.55;13.70;;;19.20;99.90;;;;;;4967221;28;20051;-80
2023/08/12 09:16:00;;;;;;;21.88;15.02;;;19.30;99.90;;;;;;4963623;28;20141;-81
2023/08/12 09:18:26;;;;;;;18.73;16.10;;;19.30;99.90;;;;;;4990291;28;20113;-81
2023/08/12 09:20:55;;;;;;;13.98;11.40;;;19.20;99.90;;;;;;4963435;28;20038;-80
2023/08/12 09:23:27;;;;;;;37.80;19.25;;;19.20;99.90;;;;;;4960939;28;20078;-80
2023/08/12 09:26:10;;;;;;;20.45;13.43;;;19.20;99.90;;;;;;4966825;28;20127;-80
2023/08/12 09:29:51;;;;;;;25.25;14.60;;;19.30;99.90;;;;;;4944398;28;20047;-80
2023/08/12 09:32:29;;;;;;;16.27;11.47;;;19.30;99.90;;;;;;4947776;28;20050;-80
2023/08/12 09:35:15;;;;;;;15.23;12.65;;;19.20;99.90;;;;;;4955712;28;20304;-81
2023/08/12 09:37:51;;;;;;;13.50;11.95;;;19.30;99.90;;;;;;4953761;28;20039;-80
2023/08/12 09:40:32;;;;;;;21.00;14.75;;;19.30;99.90;;;;;;4980406;28;20069;-81
2023/08/12 09:43:20;;;;;;;18.15;13.25;;;19.20;99.90;;;;;;4965765;28;20046;-81
2023/08/12 09:46:12;;;;;;;24.58;14.98;;;19.30;99.90;;;;;;4963925;28;20035;-81
2023/08/12 09:48:41;;;;;;;23.63;13.57;;;19.30;99.90;;;;;;4944588;28;20102;-81
2023/08/12 09:51:13;;;;;;;14.43;12.57;;;19.30;99.90;;;;;;4948102;28;20548;-81
2023/08/12 09:53:50;;;;;;;18.17;14.90;;;19.40;99.90;;;;;;4981708;28;20042;-81
2023/08/12 09:56:39;;;;;;;12.63;11.30;;;19.40;99.90;;;;;;4971593;28;20337;-81
2023/08/12 09:59:20;;;;;;;22.15;14.75;;;19.50;99.90;;;;;;4977357;28;20045;-79
2023/08/12 10:01:59;;;;;;;13.95;11.10;;;19.60;99.90;;;;;;4967646;28;20125;-80
2023/08/12 10:04:41;;;;;;;18.05;11.90;;;19.60;99.90;;;;;;4944964;28;20417;-80
2023/08/12 10:07:12;;;;;;;14.40;10.15;;;19.60;99.90;;;;;;4956369;28;20041;-80
2023/08/12 10:10:13;;;;;;;10.32;8.68;;;19.60;99.90;;;;;;4937151;28;20049;-81
2023/08/12 10:12:43;;;;;;;8.90;6.57;;;19.70;99.90;;;;;;4987730;28;20046;-81
2023/08/12 10:15:11;;;;;;;7.35;6.22;;;19.60;99.90;;;;;;4966949;28;20046;-80
2023/08/12 10:17:51;;;;;;;9.35;6.45;;;19.70;99.90;;;;;;4993101;28;20120;-79
2023/08/12 10:20:35;;;;;;;13.40;8.98;;;19.80;99.90;;;;;;4946323;28;20066;-80
2023/08/12 10:23:13;;;;;;;9.48;6.80;;;20.00;99.90;;;;;;4968422;28;20076;-81
2023/08/12 10:25:52;;;;;;;13.48;8.73;;;20.00;99.90;;;;;;4939950;29;20054;-81
2023/08/12 10:28:43;;;;;;;13.10;7.68;;;20.10;99.90;;;;;;4948606;28;20049;-81
2023/08/12 10:31:19;;;;;;;24.83;11.23;;;20.10;99.90;;;;;;4969614;28;20050;-81
2023/08/12 10:33:57;;;;;;;17.45;9.93;;;20.10;99.90;;;;;;4960753;28;20174;-81
2023/08/12 10:36:34;;;;;;;10.45;8.82;;;20.10;99.90;;;;;;4953315;28;20042;-81
2023/08/12 10:39:14;;;;;;;19.48;11.73;;;20.20;99.90;;;;;;4948122;28;20217;-80
2023/08/12 10:41:51;;;;;;;17.52;10.75;;;20.20;99.90;;;;;;4942634;28;20194;-79
2023/08/12 10:44:20;;;;;;;16.48;12.27;;;20.20;99.90;;;;;;4957390;28;20087;-79
2023/08/12 10:46:54;;;;;;;14.88;12.32;;;20.40;99.90;;;;;;4953763;28;20065;-79
2023/08/12 10:49:23;;;;;;;19.40;13.35;;;20.60;99.90;;;;;;4951563;28;20038;-79
2023/08/12 10:51:57;;;;;;;18.40;11.65;;;20.70;99.90;;;;;;4956752;28;20039;-78
2023/08/12 10:54:29;;;;;;;16.23;10.50;;;20.80;99.90;;;;;;4973483;28;20401;-78
2023/08/12 10:57:16;;;;;;;15.32;10.13;;;20.90;99.90;;;;;;4954101;28;20051;-79
2023/08/12 10:59:45;;;;;;;8.95;6.60;;;21.00;99.90;;;;;;4956612;28;20078;-79
2023/08/12 11:02:18;;;;;;;11.35;7.28;;;21.00;99.90;;;;;;4941517;28;20058;-79
2023/08/12 11:04:44;;;;;;;14.15;9.15;;;20.90;99.90;;;;;;4940296;28;20038;-79
2023/08/12 11:07:23;;;;;;;11.43;9.13;;;20.80;99.90;;;;;;4966342;28;20097;-79
2023/08/12 11:10:02;;;;;;;5.22;4.70;;;20.90;99.90;;;;;;4985470;28;20031;-79
2023/08/12 11:12:34;;;;;;;12.00;9.25;;;20.90;99.90;;;;;;4973072;28;20058;-78
2023/08/12 11:15:04;;;;;;;7.60;6.07;;;21.10;99.90;;;;;;4979672;28;20077;-79
2023/08/12 11:18:07;;;;;;;25.55;8.02;;;21.30;99.90;;;;;;4959499;28;20050;-80
2023/08/12 11:20:58;;;;;;;5.47;3.55;;;21.50;99.90;;;;;;4941768;28;20598;-80
2023/08/12 11:23:28;;;;;;;2.15;1.70;;;21.70;99.90;;;;;;4945536;28;20120;-80
2023/08/12 11:26:05;;;;;;;3.53;2.08;;;21.60;99.90;;;;;;4944433;28;20576;-80
2023/08/12 11:28:49;;;;;;;6.85;2.63;;;21.50;99.90;;;;;;4943344;28;20054;-79
2023/08/12 11:31:36;;;;;;;5.30;2.70;;;21.20;99.90;;;;;;4952511;28;20051;-79
2023/08/12 11:34:06;;;;;;;4.90;2.88;;;21.10;99.90;;;;;;4943806;28;20109;-79
2023/08/12 11:36:35;;;;;;;9.38;4.03;;;20.80;99.90;;;;;;4974244;28;20121;-79
2023/08/12 11:39:15;;;;;;;6.95;4.75;;;20.60;99.90;;;;;;4943472;28;20057;-79
2023/08/12 11:41:53;;;;;;;10.55;5.00;;;20.50;99.90;;;;;;4949473;28;20445;-80
2023/08/12 11:44:41;;;;;;;5.45;4.03;;;20.40;99.90;;;;;;4943332;28;20078;-81
2023/08/12 11:47:10;;;;;;;10.52;5.55;;;20.40;99.90;;;;;;4957703;28;20050;-79
2023/08/12 11:49:44;;;;;;;9.02;5.10;;;20.50;99.90;;;;;;4945083;28;20040;-80
2023/08/12 11:52:18;;;;;;;12.32;6.15;;;20.60;99.90;;;;;;4948826;28;20049;-80
2023/08/12 11:55:12;;;;;;;8.98;6.35;;;20.70;99.90;;;;;;4962787;28;20046;-80
2023/08/12 11:57:45;;;;;;;9.38;6.30;;;21.10;99.90;;;;;;4959255;28;20086;-80
2023/08/12 12:00:18;;;;;;;11.52;5.00;;;21.60;99.90;;;;;;4946685;28;20046;-79
2023/08/12 12:02:56;;;;;;;10.60;4.30;;;21.70;99.90;;;;;;4947634;28;20506;-80
2023/08/12 12:05:34;;;;;;;5.32;3.17;;;21.80;99.90;;;;;;4961475;28;20141;-79
2023/08/12 12:08:05;;;;;;;8.10;3.38;;;21.80;99.90;;;;;;4948123;28;20053;-80
2023/08/12 12:10:32;;;;;;;7.13;3.30;;;21.80;99.90;;;;;;4947207;28;20057;-79
2023/08/12 12:13:05;;;;;;;7.65;3.05;;;21.80;99.90;;;;;;4961674;28;20046;-79
2023/08/12 12:15:44;;;;;;;8.80;3.85;;;22.00;99.90;;;;;;4946295;28;20038;-79
2023/08/12 12:18:27;;;;;;;8.60;3.22;;;22.30;99.90;;;;;;4965370;28;20034;-80
2023/08/12 12:21:17;;;;;;;8.55;4.00;;;22.50;99.90;;;;;;4968997;28;20050;-80
2023/08/12 12:23:57;;;;;;;7.82;3.70;;;22.80;99.90;;;;;;4957013;28;20410;-78
2023/08/12 12:26:32;;;;;;;8.35;3.20;;;23.30;99.90;;;;;;4938363;28;20082;-78
2023/08/12 12:28:59;;;;;;;7.47;2.90;;;23.90;99.90;;;;;;4941467;28;20050;-79
2023/08/12 12:31:27;;;;;;;9.93;3.20;;;24.40;99.90;;;;;;4960228;28;20100;-78
2023/08/12 12:34:07;;;;;;;8.07;2.88;;;24.70;99.90;;;;;;4949438;28;20035;-79
2023/08/12 12:36:42;;;;;;;11.75;3.45;;;25.00;99.90;;;;;;4952046;28;20102;-79
2023/08/12 12:39:13;;;;;;;7.90;2.90;;;25.40;99.90;;;;;;4948154;28;20038;-79
2023/08/12 12:41:45;;;;;;;9.83;2.70;;;25.40;99.90;;;;;;4959291;28;20043;-80
2023/08/12 12:44:14;;;;;;;6.78;2.30;;;25.20;99.90;;;;;;4980961;28;20281;-80
2023/08/12 12:47:10;;;;;;;5.63;2.40;;;24.90;99.90;;;;;;4981918;28;20058;-80
2023/08/12 12:49:42;;;;;;;7.05;2.40;;;24.90;99.90;;;;;;4952422;28;20031;-79
2023/08/12 12:52:11;;;;;;;9.75;2.70;;;24.90;99.90;;;;;;4964009;28;20493;-80
2023/08/12 12:54:52;;;;;;;6.15;2.33;;;24.70;99.90;;;;;;4977283;28;20050;-79
2023/08/12 12:57:20;;;;;;;7.15;3.05;;;24.70;99.90;;;;;;4981652;28;20085;-79
2023/08/12 12:59:52;;;;;;;8.23;2.75;;;24.90;99.90;;;;;;4961766;28;20082;-80